Time;durP1;ratioP1;P1;durP2;ratioP2;P2;SDS_P1;SDS_P2;PMS_P1;PMS_P2;Temp;Humidity;BMP_temperature;BMP_pressure;BME280_temperature;BME280_humidity;BME280_pressure;Samples;Min_cycle;Max_cycle;Signal;HPM_P1;HPM_P2
2023/05/18 00:01:42;;;;;;;0.50;0.30;;;6.60;99.90;;;;;;25967519;22;19996;-58
2023/05/18 00:11:43;;;;;;;0.38;0.20;;;7.10;99.90;;;;;;25967120;22;20008;-58
2023/05/18 00:21:46;;;;;;;1.55;0.30;;;7.20;99.90;;;;;;25966567;22;19999;-49
2023/05/18 00:31:48;;;;;;;0.80;0.30;;;7.10;99.90;;;;;;25965610;22;20069;-58
2023/05/18 00:41:50;;;;;;;0.52;0.30;;;7.00;99.90;;;;;;25940748;22;19995;-58
2023/05/18 00:51:52;;;;;;;0.85;0.50;;;7.00;99.90;;;;;;25938155;22;20342;-46
2023/05/18 01:01:54;;;;;;;1.08;0.50;;;7.20;99.90;;;;;;25965385;22;20350;-58
2023/05/18 01:11:56;;;;;;;0.30;0.20;;;7.30;99.90;;;;;;25964940;22;20430;-58
2023/05/18 01:22:37;;;;;;;0.55;0.30;;;7.10;99.90;;;;;;25964508;22;20014;-58
2023/05/18 01:32:41;;;;;;;1.35;0.30;;;6.70;99.90;;;;;;26006511;22;20016;-57
2023/05/18 01:42:49;;;;;;;0.98;0.55;;;6.20;99.90;;;;;;25969858;22;20003;-58
2023/05/18 01:53:07;;;;;;;1.15;0.60;;;5.80;99.90;;;;;;25973955;22;20430;-50
2023/05/18 02:03:14;;;;;;;0.70;0.47;;;5.70;99.90;;;;;;26016243;22;20410;-50
2023/05/18 02:13:15;;;;;;;1.95;0.70;;;5.80;99.90;;;;;;25986988;22;20004;-58
2023/05/18 02:23:17;;;;;;;1.70;0.75;;;6.00;99.90;;;;;;25944507;22;20336;-51
2023/05/18 02:33:24;;;;;;;0.98;0.73;;;6.30;99.90;;;;;;25943722;22;20061;-49
2023/05/18 02:43:26;;;;;;;1.33;0.73;;;6.40;99.90;;;;;;26012261;22;20007;-51
2023/05/18 02:53:28;;;;;;;2.45;1.00;;;6.20;99.90;;;;;;26011717;22;20057;-51
2023/05/18 03:03:37;;;;;;;1.50;0.90;;;5.80;99.90;;;;;;25985162;22;20004;-52
2023/05/18 03:13:39;;;;;;;5.82;0.90;;;5.00;99.90;;;;;;25971201;22;20012;-51
2023/05/18 03:23:41;;;;;;;1.77;0.70;;;4.40;99.90;;;;;;25968963;22;20007;-49
2023/05/18 03:33:42;;;;;;;1.48;0.80;;;3.90;99.90;;;;;;25968811;22;20012;-48
2023/05/18 03:43:44;;;;;;;0.73;0.43;;;4.00;99.90;;;;;;25968299;22;20012;-46
2023/05/18 03:53:47;;;;;;;0.70;0.50;;;4.50;99.90;;;;;;25940944;22;20007;-52
2023/05/18 04:03:49;;;;;;;0.77;0.43;;;4.70;99.90;;;;;;25940221;22;20007;-48
2023/05/18 04:13:52;;;;;;;0.70;0.45;;;4.90;99.90;;;;;;25940216;22;20039;-47
2023/05/18 04:23:54;;;;;;;0.85;0.50;;;4.90;99.90;;;;;;25967013;22;20003;-57
2023/05/18 04:33:57;;;;;;;0.85;0.50;;;4.50;99.90;;;;;;25966332;22;20015;-50
2023/05/18 04:44:02;;;;;;;0.40;0.30;;;4.10;99.90;;;;;;25968245;22;20038;-57
2023/05/18 04:54:05;;;;;;;0.75;0.40;;;4.00;99.90;;;;;;25980576;22;20070;-48
2023/05/18 05:04:06;;;;;;;0.47;0.30;;;4.60;99.90;;;;;;25939253;22;20003;-57
2023/05/18 05:14:09;;;;;;;2.15;0.32;;;5.30;99.90;;;;;;25964730;22;20004;-48
2023/05/18 05:24:11;;;;;;;0.70;0.40;;;5.30;99.90;;;;;;25937579;22;20068;-51
2023/05/18 05:34:13;;;;;;;0.40;0.22;;;5.30;99.90;;;;;;25937012;22;20440;-51
2023/05/18 05:44:15;;;;;;;2.03;0.40;;;5.40;99.90;;;;;;25964366;22;20334;-58
2023/05/18 05:54:17;;;;;;;1.08;0.40;;;6.90;99.90;;;;;;25936698;22;20077;-50
2023/05/18 06:04:19;;;;;;;0.73;0.40;;;8.30;99.90;;;;;;25936520;22;20450;-46
2023/05/18 06:14:21;;;;;;;0.70;0.30;;;9.10;99.90;;;;;;25962656;22;20026;-51
2023/05/18 06:24:23;;;;;;;0.70;0.30;;;10.30;99.90;;;;;;25938005;22;20004;-51
2023/05/18 06:34:41;;;;;;;0.30;0.30;;;13.00;99.90;;;;;;25985240;22;20508;-62
2023/05/18 06:44:43;;;;;;;0.20;0.20;;;15.20;99.90;;;;;;25943564;22;20439;-52
2023/05/18 06:54:51;;;;;;;0.25;0.20;;;18.00;97.30;;;;;;25985471;22;20382;-52
2023/05/18 07:04:53;;;;;;;0.52;0.25;;;18.90;93.40;;;;;;25942957;22;19999;-61
2023/05/18 07:14:55;;;;;;;0.30;0.30;;;18.90;88.90;;;;;;25969529;22;20004;-61
2023/05/18 07:24:57;;;;;;;0.40;0.30;;;17.70;93.60;;;;;;25969252;22;20008;-61
2023/05/18 07:34:59;;;;;;;1.10;0.32;;;17.50;93.40;;;;;;25967379;22;20014;-60
2023/05/18 07:45:01;;;;;;;0.82;0.43;;;17.30;93.20;;;;;;25968308;22;20019;-60
2023/05/18 07:55:03;;;;;;;2.10;0.60;;;17.50;92.40;;;;;;25968026;22;20030;-49
2023/05/18 08:05:05;;;;;;;0.90;0.50;;;17.40;93.80;;;;;;25966955;22;20296;-60
2023/05/18 08:15:07;;;;;;;0.85;0.50;;;17.50;92.20;;;;;;25967410;22;20276;-53
2023/05/18 08:25:09;;;;;;;0.57;0.40;;;17.50;95.20;;;;;;25966517;22;20313;-59
2023/05/18 08:35:11;;;;;;;0.30;0.30;;;18.40;96.00;;;;;;25965786;22;20407;-59
2023/05/18 08:45:18;;;;;;;1.20;0.68;;;18.90;95.60;;;;;;25965678;22;20019;-60
2023/05/18 08:55:21;;;;;;;0.65;0.65;;;19.40;94.80;;;;;;25965153;22;20019;-60
2023/05/18 09:05:23;;;;;;;1.10;0.60;;;19.60;96.10;;;;;;25964140;22;20069;-60
2023/05/18 09:15:26;;;;;;;1.35;0.80;;;20.30;95.80;;;;;;25964420;22;20003;-54
2023/05/18 09:25:33;;;;;;;1.83;0.85;;;20.50;96.10;;;;;;25964575;22;20073;-60
2023/05/18 09:35:36;;;;;;;3.10;1.17;;;21.00;96.20;;;;;;26006540;22;20272;-59
2023/05/18 09:45:45;;;;;;;2.75;1.10;;;21.10;95.00;;;;;;25963757;22;20038;-59
2023/05/18 09:55:48;;;;;;;2.28;1.40;;;19.30;95.40;;;;;;26006417;22;20008;-58
2023/05/18 10:05:50;;;;;;;2.38;1.40;;;18.20;98.20;;;;;;25969864;22;20008;-51
2023/05/18 10:15:58;;;;;;;2.22;1.33;;;16.60;98.90;;;;;;25944687;22;20300;-48
2023/05/18 10:26:02;;;;;;;2.83;1.52;;;16.60;99.90;;;;;;26013948;22;20104;-59
2023/05/18 10:36:05;;;;;;;1.83;1.52;;;16.50;99.20;;;;;;25970542;22;20031;-59
2023/05/18 10:46:08;;;;;;;2.38;1.90;;;15.20;99.90;;;;;;25943578;22;20003;-59
2023/05/18 10:56:10;;;;;;;2.50;1.80;;;14.50;99.90;;;;;;25970449;22;20012;-50
2023/05/18 11:06:13;;;;;;;3.58;1.80;;;13.80;99.90;;;;;;25969675;22;20007;-50
2023/05/18 11:16:16;;;;;;;2.20;2.00;;;13.20;99.90;;;;;;25969015;22;20390;-58
2023/05/18 11:26:17;;;;;;;4.00;1.98;;;12.90;99.90;;;;;;25969170;22;20019;-47
2023/05/18 11:36:23;;;;;;;2.03;1.50;;;13.30;99.90;;;;;;25968811;22;20073;-54
2023/05/18 11:46:25;;;;;;;2.75;1.52;;;16.00;99.90;;;;;;25997156;22;20038;-59
2023/05/18 11:56:32;;;;;;;2.13;1.50;;;16.30;99.90;;;;;;25967979;22;20020;-50
2023/05/18 12:06:35;;;;;;;4.00;2.22;;;15.50;99.90;;;;;;26008442;22;20011;-59
2023/05/18 12:16:39;;;;;;;3.97;2.78;;;15.00;99.90;;;;;;25966765;22;20081;-54
2023/05/18 12:26:40;;;;;;;5.30;3.40;;;15.10;99.90;;;;;;25966580;22;20085;-51
2023/05/18 12:36:52;;;;;;;4.65;3.67;;;14.70;99.90;;;;;;25966028;22;20501;-58
2023/05/18 12:46:54;;;;;;;5.13;3.95;;;13.10;99.90;;;;;;25992706;22;20074;-58
2023/05/18 12:56:59;;;;;;;5.38;4.03;;;11.90;99.90;;;;;;25965668;22;20023;-49
2023/05/18 13:07:00;;;;;;;5.00;4.00;;;11.70;99.90;;;;;;25963987;22;20015;-58
2023/05/18 13:17:02;;;;;;;4.25;3.53;;;11.60;99.90;;;;;;25964772;22;20016;-58
2023/05/18 13:27:03;;;;;;;4.53;3.63;;;12.10;99.90;;;;;;25964651;22;20015;-53
2023/05/18 13:37:05;;;;;;;5.40;3.72;;;12.70;99.90;;;;;;25936608;22;20023;-50
2023/05/18 13:47:06;;;;;;;6.03;3.30;;;13.40;99.90;;;;;;25964080;22;20022;-59
2023/05/18 13:57:08;;;;;;;5.45;3.30;;;13.60;99.90;;;;;;25963834;22;20019;-59
2023/05/18 14:07:10;;;;;;;3.97;3.55;;;14.00;99.90;;;;;;25962753;22;20023;-59
2023/05/18 14:17:12;;;;;;;5.35;3.53;;;14.00;99.90;;;;;;25963271;22;20030;-62
2023/05/18 14:27:14;;;;;;;4.45;3.67;;;16.10;99.90;;;;;;25963319;22;20042;-60
2023/05/18 14:37:15;;;;;;;4.30;3.47;;;15.20;99.90;;;;;;25962947;22;20011;-59
2023/05/18 14:47:17;;;;;;;3.20;2.90;;;15.50;99.90;;;;;;25965216;22;20324;-59
2023/05/18 14:57:18;;;;;;;5.90;3.35;;;15.60;99.90;;;;;;25970450;22;20381;-59
2023/05/18 15:07:20;;;;;;;3.83;3.08;;;15.10;99.90;;;;;;25970084;22;20088;-59
2023/05/18 15:17:22;;;;;;;3.22;2.28;;;15.10;99.90;;;;;;25969664;22;20077;-60
2023/05/18 15:27:23;;;;;;;3.83;2.50;;;15.90;99.90;;;;;;25969362;22;20041;-61
2023/05/18 15:37:25;;;;;;;4.55;2.90;;;16.70;99.90;;;;;;25968838;22;20523;-60
2023/05/18 15:47:26;;;;;;;2.90;2.53;;;16.70;99.90;;;;;;25968475;22;20019;-59
2023/05/18 15:57:28;;;;;;;3.78;3.00;;;15.40;99.90;;;;;;25967889;22;20508;-59
2023/05/18 16:07:29;;;;;;;3.05;2.75;;;14.60;99.90;;;;;;25966374;22;20016;-52
2023/05/18 16:17:31;;;;;;;4.63;3.30;;;13.90;99.90;;;;;;25967024;22;20015;-58
2023/05/18 16:27:32;;;;;;;4.18;3.78;;;13.40;99.90;;;;;;25966925;22;20012;-51
2023/05/18 16:37:34;;;;;;;4.68;3.47;;;13.20;99.90;;;;;;25965612;22;20311;-55
2023/05/18 16:47:35;;;;;;;7.68;3.40;;;13.20;99.90;;;;;;25965983;22;20023;-51
2023/05/18 16:57:38;;;;;;;6.93;4.18;;;13.10;99.90;;;;;;25965626;22;20008;-58
2023/05/18 17:07:39;;;;;;;5.13;4.25;;;13.10;99.90;;;;;;25964685;22;20038;-59
2023/05/18 17:17:42;;;;;;;5.70;4.32;;;12.80;99.90;;;;;;25964757;22;20012;-59
2023/05/18 17:27:44;;;;;;;6.78;4.40;;;12.40;99.90;;;;;;25964789;22;20427;-59
2023/05/18 17:37:47;;;;;;;5.45;4.03;;;12.10;99.90;;;;;;25962921;22;20000;-58
2023/05/18 17:47:49;;;;;;;6.57;4.47;;;11.70;99.90;;;;;;26006130;22;20016;-59
2023/05/18 17:57:50;;;;;;;6.18;3.88;;;11.30;99.90;;;;;;25937039;22;20038;-58
2023/05/18 18:07:53;;;;;;;5.85;4.35;;;10.90;99.90;;;;;;25963982;22;20055;-59
2023/05/18 18:17:55;;;;;;;7.78;4.82;;;10.50;99.90;;;;;;25963674;22;19999;-59
2023/05/18 18:27:56;;;;;;;6.22;4.40;;;10.30;99.90;;;;;;25944697;22;19999;-58
2023/05/18 18:37:58;;;;;;;6.03;4.93;;;10.00;99.90;;;;;;25970051;22;20095;-58
2023/05/18 18:48:00;;;;;;;7.45;4.47;;;9.60;99.90;;;;;;25970798;22;20011;-58
2023/05/18 18:58:02;;;;;;;6.43;4.50;;;9.30;99.90;;;;;;25943063;22;20054;-58
2023/05/18 19:08:04;;;;;;;6.43;4.40;;;9.20;99.90;;;;;;25969145;22;20058;-59
2023/05/18 19:18:06;;;;;;;7.20;3.97;;;9.10;99.90;;;;;;25969788;22;20276;-57
2023/05/18 19:28:08;;;;;;;6.93;4.22;;;9.20;99.90;;;;;;25942100;22;20053;-47
2023/05/18 19:38:10;;;;;;;6.53;4.82;;;9.10;99.90;;;;;;25967320;22;20004;-58
2023/05/18 19:48:12;;;;;;;10.95;5.32;;;9.10;99.90;;;;;;25968252;22;20012;-51
2023/05/18 19:58:14;;;;;;;6.53;4.80;;;9.10;99.90;;;;;;25966680;22;20069;-58
2023/05/18 20:08:16;;;;;;;6.15;4.32;;;9.20;99.90;;;;;;25967665;22;20007;-52
2023/05/18 20:18:18;;;;;;;6.35;4.25;;;9.10;99.90;;;;;;25967140;22;20030;-47
2023/05/18 20:28:21;;;;;;;6.65;4.45;;;9.10;99.90;;;;;;25967047;22;20004;-58
2023/05/18 20:38:24;;;;;;;5.63;4.10;;;9.20;99.90;;;;;;25967187;22;20446;-58
2023/05/18 20:48:27;;;;;;;5.25;3.75;;;9.10;99.90;;;;;;25965643;22;20320;-51
2023/05/18 20:58:32;;;;;;;6.03;4.30;;;9.10;99.90;;;;;;25965724;22;20008;-58
2023/05/18 21:08:34;;;;;;;5.65;3.10;;;9.10;99.90;;;;;;25965148;22;20007;-51
2023/05/18 21:18:36;;;;;;;4.10;2.85;;;9.10;99.90;;;;;;25964881;22;20391;-48
2023/05/18 21:28:37;;;;;;;3.65;2.90;;;9.20;99.90;;;;;;25964695;22;20004;-58
2023/05/18 21:38:39;;;;;;;6.35;3.72;;;9.20;99.90;;;;;;25964258;22;20079;-58
2023/05/18 21:48:41;;;;;;;4.80;3.80;;;9.40;99.90;;;;;;25963849;22;20525;-48
2023/05/18 21:58:42;;;;;;;6.55;3.85;;;9.40;99.90;;;;;;25969073;22;20342;-50
2023/05/18 22:08:45;;;;;;;3.80;3.05;;;9.50;99.90;;;;;;25972405;22;20058;-58
2023/05/18 22:18:46;;;;;;;5.63;3.45;;;9.50;99.90;;;;;;25971686;22;20007;-58
2023/05/18 22:28:48;;;;;;;4.68;2.75;;;9.40;99.90;;;;;;25971673;22;20038;-59
2023/05/18 22:38:51;;;;;;;4.70;3.10;;;9.30;99.90;;;;;;25969591;22;20012;-58
2023/05/18 22:48:52;;;;;;;5.93;3.60;;;9.20;99.90;;;;;;25970810;22;20011;-52
2023/05/18 22:58:54;;;;;;;8.48;5.63;;;9.20;99.90;;;;;;25970974;22;20516;-48
2023/05/18 23:08:57;;;;;;;6.90;4.90;;;9.20;99.90;;;;;;25969708;22;20014;-50
2023/05/18 23:19:00;;;;;;;6.75;5.05;;;9.30;99.90;;;;;;25969895;22;20015;-58
2023/05/18 23:29:02;;;;;;;5.25;3.80;;;9.30;99.90;;;;;;25942956;22;20004;-47
2023/05/18 23:39:03;;;;;;;6.05;3.72;;;9.30;99.90;;;;;;25969437;22;20346;-51
2023/05/18 23:49:05;;;;;;;5.80;4.10;;;9.30;99.90;;;;;;25968995;22;20508;-49
2023/05/18 23:59:10;;;;;;;6.18;4.97;;;9.20;99.90;;;;;;25968892;22;20011;-58
